Stonybrook, Pennsylvania
Current Conditions -  °F | °C
As of 12:53 AM on Friday 28 Nov 2014 (Local Time) from KTHV Reporting Station
Few Clouds Few Clouds  
Wind Chill: 26°   Ceiling: Unl
Heat Index: 32°   Visibility: 10mi
Dew Point: 23°   Wind: 7mph
Humidity: 69%   Direction: 280°W
Pressure: 30.14"   Gusts: NA
Location:  39.9768°N, 76.6853°W
Report Text: KTHV 280553Z AUTO 28006KT 10SM FEW039 FEW090 00/M05 A3014 RMK AO2 SLP212 I6000 T00001050 10017 21028 53006
Loading
Personal Weather Stations






























Interactive Weather Map New forecast layout! Learn more

10-Day Weather Forecast

Advertisements
Track Severe Weather on mobile